Time;durP1;ratioP1;P1;durP2;ratioP2;P2;SDS_P1;SDS_P2;PMS_P1;PMS_P2;Temp;Humidity;BMP_temperature;BMP_pressure;BME280_temperature;BME280_humidity;BME280_pressure;Samples;Min_cycle;Max_cycle;Signal;HPM_P1;HPM_P2
2021/03/10 00:00:33;;;;;;;61.40;25.03;;;;;;;-3.70;62.02;99306.23;2160524;82;21134;-79
2021/03/10 00:03:36;;;;;;;77.80;35.77;;;;;;;-2.30;77.78;99304.91;2161011;82;21141;-78
2021/03/10 00:06:37;;;;;;;60.00;26.07;;;;;;;2.89;75.07;99291.39;2160800;82;21245;-77
2021/03/10 00:09:38;;;;;;;64.30;26.67;;;;;;;3.69;56.84;99290.92;2161690;82;21083;-78
2021/03/10 00:12:40;;;;;;;50.00;23.47;;;;;;;1.88;53.52;99295.23;2161729;82;21297;-77
2021/03/10 00:15:41;;;;;;;56.23;23.90;;;;;;;0.44;53.17;99300.80;2161765;82;21400;-77
2021/03/10 00:18:42;;;;;;;52.03;23.70;;;;;;;-0.61;53.75;99299.91;2162304;82;21304;-78
2021/03/10 00:21:43;;;;;;;48.70;23.17;;;;;;;-1.42;54.62;99298.13;2161747;82;21388;-77
2021/03/10 00:24:44;;;;;;;55.90;24.67;;;;;;;-1.97;55.62;99300.81;2161258;82;21313;-78
2021/03/10 00:27:45;;;;;;;48.83;23.70;;;;;;;-2.34;56.45;99301.25;2161064;82;21423;-78
2021/03/10 00:30:46;;;;;;;52.30;22.67;;;;;;;-2.65;56.97;99304.58;2166027;81;21106;-77
2021/03/10 00:33:50;;;;;;;56.47;23.80;;;;;;;-2.95;57.65;99306.24;2179518;81;21146;-78
2021/03/10 00:36:51;;;;;;;118.33;62.98;;;;;;;-3.14;58.34;99305.31;2179532;82;21218;-79
2021/03/10 00:39:52;;;;;;;62.60;30.50;;;;;;;1.07;75.45;99293.76;2179680;81;21118;-79
2021/03/10 00:42:53;;;;;;;53.40;26.57;;;;;;;4.70;60.27;99272.59;2179568;81;21094;-78
2021/03/10 00:45:54;;;;;;;70.27;26.57;;;;;;;3.25;51.54;99270.35;2179550;81;21431;-78
2021/03/10 00:48:55;;;;;;;48.80;22.87;;;;;;;1.39;50.92;99276.64;2179373;81;21138;-78
2021/03/10 00:52:01;;;;;;;55.23;23.43;;;;;;;0.13;51.53;99281.83;2179268;81;21356;-78
2021/03/10 00:55:02;;;;;;;53.23;23.13;;;;;;;-0.85;52.61;99279.63;2178843;82;21228;-77
2021/03/10 00:58:03;;;;;;;50.03;23.27;;;;;;;-1.55;53.65;99275.06;2179253;81;21423;-77
2021/03/10 01:01:04;;;;;;;49.10;23.17;;;;;;;-2.07;54.66;99272.84;2179033;81;21384;-77
2021/03/10 01:04:05;;;;;;;47.40;22.30;;;;;;;-2.52;55.47;99266.74;2178193;81;22060;-77
2021/03/10 01:07:06;;;;;;;50.90;22.87;;;;;;;-2.86;56.29;99276.63;2177739;81;21122;-77
2021/03/10 01:10:07;;;;;;;57.57;22.57;;;;;;;-3.16;56.96;99266.01;2177848;81;21137;-78
2021/03/10 01:13:08;;;;;;;53.90;23.80;;;;;;;-3.34;57.48;99264.69;2176805;81;21133;-78
2021/03/10 01:16:09;;;;;;;59.53;24.40;;;;;;;-3.53;58.08;99261.16;2177995;81;21117;-77
2021/03/10 01:19:10;;;;;;;56.90;24.97;;;;;;;-3.70;58.68;99261.20;2178061;81;21146;-76
2021/03/10 01:22:11;;;;;;;80.43;24.83;;;;;;;-3.78;58.57;99260.13;2178559;81;21407;-77
2021/03/10 01:25:12;;;;;;;69.43;22.30;;;;;;;-3.82;58.99;99267.05;2179167;81;21162;-78
2021/03/10 01:28:14;;;;;;;53.57;24.07;;;;;;;-4.01;58.98;99258.03;2178540;81;21146;-77
2021/03/10 01:31:15;;;;;;;58.40;23.80;;;;;;;-4.17;59.30;99258.55;2178050;81;21423;-77
2021/03/10 01:34:16;;;;;;;52.93;23.47;;;;;;;-4.28;59.70;99257.23;2177134;81;21122;-77
2021/03/10 01:37:17;;;;;;;60.07;24.33;;;;;;;-4.39;60.27;99251.67;2177064;81;21130;-79
2021/03/10 01:40:18;;;;;;;59.73;22.50;;;;;;;-4.45;60.53;99248.66;2178120;81;21090;-79
2021/03/10 01:43:19;;;;;;;59.93;23.07;;;;;;;-4.49;60.42;99248.42;2178722;81;21118;-78
2021/03/10 01:46:20;;;;;;;56.87;23.30;;;;;;;-4.56;60.71;99246.17;2179685;81;21082;-78
2021/03/10 01:49:21;;;;;;;55.97;24.23;;;;;;;-4.58;61.03;99245.17;2179653;81;21126;-77
2021/03/10 01:52:22;;;;;;;52.97;24.33;;;;;;;-4.65;60.93;99240.38;2178978;81;21263;-77
2021/03/10 01:55:23;;;;;;;63.40;23.50;;;;;;;-4.71;60.84;99240.29;2179117;81;21110;-77
2021/03/10 01:58:24;;;;;;;74.03;35.80;;;;;;;-4.84;61.09;99243.55;2180032;81;21171;-79
2021/03/10 02:01:25;;;;;;;56.00;22.97;;;;;;;-1.19;80.53;99225.33;2179590;81;21114;-77
2021/03/10 02:04:26;;;;;;;51.40;22.67;;;;;;;1.17;60.82;99217.61;2178816;81;21129;-78
2021/03/10 02:07:27;;;;;;;114.87;27.03;;;;;;;-0.24;55.35;99212.88;2177606;81;21166;-78
2021/03/10 02:10:28;;;;;;;67.23;23.10;;;;;;;-1.62;54.37;99217.45;2177459;81;21146;-78
2021/03/10 02:13:29;;;;;;;60.30;24.13;;;;;;;-2.64;54.81;99226.25;2177752;81;21126;-78
2021/03/10 02:16:30;;;;;;;55.57;23.33;;;;;;;-3.31;55.59;99234.27;2177295;81;21408;-78
2021/03/10 02:19:31;;;;;;;55.00;24.10;;;;;;;-3.90;57.12;99232.94;2177512;81;21133;-79
2021/03/10 02:22:32;;;;;;;75.30;24.27;;;;;;;-4.29;58.29;99238.50;2176918;81;21145;-79
2021/03/10 02:25:33;;;;;;;76.17;25.20;;;;;;;-4.51;58.88;99233.80;2177594;81;21284;-78
2021/03/10 02:28:34;;;;;;;55.93;23.57;;;;;;;-4.69;59.23;99235.82;2179236;81;21103;-78
2021/03/10 02:31:35;;;;;;;67.07;25.70;;;;;;;-4.84;59.61;99234.63;2174095;81;21524;-78
2021/03/10 02:34:36;;;;;;;60.13;25.43;;;;;;;-4.98;60.24;99237.77;2161987;82;21123;-77
2021/03/10 02:37:37;;;;;;;87.67;27.27;;;;;;;-5.10;60.65;99229.17;2161971;82;21241;-78
2021/03/10 02:40:41;;;;;;;179.80;33.77;;;;;;;-5.23;60.88;99232.38;2162170;82;21253;-78
2021/03/10 02:43:42;;;;;;;71.67;27.53;;;;;;;-5.38;61.20;99239.69;2162393;82;21269;-78
2021/03/10 02:46:43;;;;;;;65.63;26.23;;;;;;;-5.40;61.29;99244.14;2161839;82;21253;-78
2021/03/10 02:49:46;;;;;;;74.63;27.87;;;;;;;-5.53;61.05;99249.91;2162149;82;21140;-79
2021/03/10 02:52:47;;;;;;;66.97;27.90;;;;;;;-5.67;61.58;99254.27;2161891;82;21257;-78
2021/03/10 02:55:49;;;;;;;66.20;26.73;;;;;;;-5.79;61.87;99254.16;2160174;82;21272;-78
2021/03/10 02:58:51;;;;;;;124.70;29.73;;;;;;;-5.86;62.22;99250.23;2162007;82;21419;-78
2021/03/10 03:01:54;;;;;;;158.40;33.30;;;;;;;-5.96;62.37;99260.44;2161899;82;21257;-78
2021/03/10 03:04:55;;;;;;;60.70;24.50;;;;;;;-6.05;62.76;99253.71;2160347;82;21567;-77
2021/03/10 03:07:57;;;;;;;129.77;27.87;;;;;;;-6.12;62.70;99251.02;2159603;82;21540;-77
2021/03/10 03:10:58;;;;;;;57.53;22.63;;;;;;;-6.19;62.62;99249.62;2160181;82;21142;-78
2021/03/10 03:13:59;;;;;;;57.20;22.57;;;;;;;-6.18;62.10;99252.66;2160364;82;21390;-79
2021/03/10 03:17:00;;;;;;;57.73;23.43;;;;;;;-6.28;61.99;99258.12;2160836;82;21253;-79
2021/03/10 03:20:01;;;;;;;74.93;29.50;;;;;;;-6.43;62.01;99253.92;2160034;82;21289;-78
2021/03/10 03:23:02;;;;;;;81.57;34.30;;;;;;;-6.50;62.43;99254.17;2159683;82;21147;-78
2021/03/10 03:26:03;;;;;;;61.77;24.13;;;;;;;-6.56;62.80;99254.55;2160093;82;21297;-78
2021/03/10 03:29:04;;;;;;;197.67;33.30;;;;;;;-6.57;62.81;99255.30;2160295;82;21119;-79
2021/03/10 03:32:05;;;;;;;336.77;41.47;;;;;;;-6.58;62.99;99259.88;2167106;82;21122;-78
2021/03/10 03:35:06;;;;;;;225.00;33.97;;;;;;;-6.59;63.33;99257.20;2177321;81;21262;-77
2021/03/10 03:38:08;;;;;;;119.90;27.90;;;;;;;-6.54;63.78;99260.64;2177768;81;21256;-78
2021/03/10 03:41:09;;;;;;;62.57;25.27;;;;;;;-6.53;63.93;99257.34;2177891;81;21118;-79
2021/03/10 03:44:10;;;;;;;50.73;22.53;;;;;;;-6.49;63.44;99253.03;2178551;81;21161;-79
2021/03/10 03:47:11;;;;;;;55.97;22.43;;;;;;;-6.51;62.92;99255.82;2177412;81;21185;-78
2021/03/10 03:50:12;;;;;;;60.23;25.30;;;;;;;-6.64;63.03;99263.17;2177310;81;21146;-78
2021/03/10 03:53:13;;;;;;;65.20;25.43;;;;;;;-6.75;63.02;99260.09;2178519;82;21137;-78
2021/03/10 03:56:14;;;;;;;67.13;26.33;;;;;;;-6.82;63.25;99266.30;2178777;81;21118;-79
2021/03/10 03:59:15;;;;;;;76.80;26.33;;;;;;;-6.86;63.28;99268.06;2178330;81;21194;-78
2021/03/10 04:02:16;;;;;;;66.23;27.23;;;;;;;-6.88;63.36;99269.58;2178315;81;21271;-78
2021/03/10 04:05:17;;;;;;;70.97;25.50;;;;;;;-6.91;63.46;99270.97;2176914;82;21574;-79
2021/03/10 04:08:18;;;;;;;68.60;25.53;;;;;;;-6.97;63.03;99267.87;2177192;82;21126;-79
2021/03/10 04:11:19;;;;;;;60.10;24.10;;;;;;;-7.04;63.21;99271.91;2175993;81;21277;-78
2021/03/10 04:14:20;;;;;;;119.33;41.73;;;;;;;-7.09;63.30;99269.86;2176115;81;21149;-78
2021/03/10 04:17:21;;;;;;;113.63;26.30;;;;;;;-7.13;63.31;99275.80;2175965;81;21098;-79
2021/03/10 04:20:22;;;;;;;56.03;23.53;;;;;;;-7.21;63.34;99279.32;2175725;81;21560;-78
2021/03/10 04:23:24;;;;;;;55.43;23.77;;;;;;;-7.21;63.55;99276.78;2176059;81;21293;-78
2021/03/10 04:26:25;;;;;;;101.50;26.50;;;;;;;-7.21;63.47;99282.75;2176960;81;21240;-79
2021/03/10 04:29:26;;;;;;;66.47;23.97;;;;;;;-7.19;63.59;99280.34;2177713;81;21544;-79
2021/03/10 04:32:27;;;;;;;53.13;21.97;;;;;;;-7.20;63.06;99279.83;2176788;81;21268;-77
2021/03/10 04:35:29;;;;;;;51.00;22.70;;;;;;;-7.25;63.20;99279.81;2174863;81;21110;-78
2021/03/10 04:38:30;;;;;;;63.10;22.97;;;;;;;-7.28;63.49;99286.77;2176596;81;21268;-79
2021/03/10 04:41:31;;;;;;;57.77;24.33;;;;;;;-7.25;63.59;99288.31;2174999;81;21273;-78
2021/03/10 04:44:32;;;;;;;58.80;23.70;;;;;;;-7.25;63.44;99287.05;2173367;81;21161;-78
2021/03/10 04:47:33;;;;;;;270.87;35.50;;;;;;;-7.28;63.63;99279.16;2173989;81;21244;-78
2021/03/10 04:50:35;;;;;;;331.23;43.63;;;;;;;-7.29;63.92;99282.84;2173545;81;21102;-79
2021/03/10 04:53:36;;;;;;;60.60;22.43;;;;;;;-7.26;64.40;99278.92;2173040;81;21252;-79
2021/03/10 04:56:37;;;;;;;215.83;31.90;;;;;;;-7.20;64.29;99276.92;2172564;81;21162;-80
2021/03/10 04:59:38;;;;;;;61.60;22.50;;;;;;;-7.14;63.89;99274.91;2171783;81;21540;-79
2021/03/10 05:02:40;;;;;;;88.10;25.03;;;;;;;-7.12;63.71;99273.40;2172900;81;22195;-78
2021/03/10 05:05:40;;;;;;;61.73;24.70;;;;;;;-7.10;63.78;99273.53;2173518;81;21285;-79
2021/03/10 05:08:41;;;;;;;56.70;23.83;;;;;;;-7.12;62.84;99275.05;2173297;81;21149;-79
2021/03/10 05:11:43;;;;;;;58.67;24.83;;;;;;;-7.15;62.98;99276.94;2173213;81;21252;-80
2021/03/10 05:14:44;;;;;;;46.40;21.33;;;;;;;-7.16;63.32;99275.16;2173357;81;21252;-77
2021/03/10 05:17:45;;;;;;;56.83;22.33;;;;;;;-7.14;63.11;99276.56;2173276;81;21288;-79
2021/03/10 05:20:46;;;;;;;64.97;23.30;;;;;;;-7.16;63.44;99275.16;2173168;81;21248;-79
2021/03/10 05:23:47;;;;;;;66.87;21.53;;;;;;;-7.10;63.32;99281.14;2172302;81;21589;-79
2021/03/10 05:26:48;;;;;;;51.90;22.70;;;;;;;-7.02;63.38;99281.81;2173003;81;21154;-78
2021/03/10 05:29:49;;;;;;;98.40;24.63;;;;;;;-6.92;63.69;99280.61;2173465;81;21264;-79
2021/03/10 05:32:50;;;;;;;46.97;21.63;;;;;;;-6.83;63.93;99276.32;2165908;81;21480;-79
2021/03/10 05:35:51;;;;;;;65.43;21.70;;;;;;;-6.65;63.71;99281.70;2156213;82;21257;-79
2021/03/10 05:38:52;;;;;;;54.07;21.70;;;;;;;-6.49;63.54;99288.59;2155386;82;21265;-79
2021/03/10 05:41:53;;;;;;;59.17;22.73;;;;;;;-6.32;63.63;99284.03;2156496;82;22095;-78
2021/03/10 05:44:54;;;;;;;64.40;24.57;;;;;;;-6.19;64.22;99280.11;2156900;82;21308;-79
2021/03/10 05:47:55;;;;;;;87.77;27.03;;;;;;;-5.94;64.31;99284.72;2157177;82;21118;-79
2021/03/10 05:50:56;;;;;;;148.43;33.00;;;;;;;-5.71;64.17;99280.20;2156604;82;21249;-79
2021/03/10 05:53:57;;;;;;;66.67;24.93;;;;;;;-5.53;63.76;99284.24;2157541;82;21087;-79
2021/03/10 05:56:58;;;;;;;65.67;23.90;;;;;;;-5.41;63.88;99281.80;2156143;82;21289;-78
2021/03/10 06:00:00;;;;;;;70.77;31.80;;;;;;;-5.27;63.85;99283.41;2156525;82;21288;-76
2021/03/10 06:03:01;;;;;;;58.13;23.83;;;;;;;-5.08;64.08;99278.16;2155920;82;21526;-77
2021/03/10 06:06:03;;;;;;;63.97;24.87;;;;;;;-4.85;63.93;99277.42;2155894;82;21571;-76
2021/03/10 06:09:04;;;;;;;59.60;26.00;;;;;;;-4.66;63.81;99281.02;2155248;82;21393;-75
2021/03/10 06:12:05;;;;;;;74.10;27.67;;;;;;;-4.39;63.93;99283.14;2155045;82;22110;-76
2021/03/10 06:15:06;;;;;;;60.63;27.17;;;;;;;-4.07;63.78;99288.56;2156253;82;21277;-76
2021/03/10 06:18:07;;;;;;;71.37;26.00;;;;;;;-3.80;63.48;99299.94;2156154;82;21115;-76
2021/03/10 06:21:08;;;;;;;62.30;26.30;;;;;;;-3.51;63.30;99296.61;2156161;82;21280;-77
2021/03/10 06:24:10;;;;;;;59.57;27.33;;;;;;;-3.27;62.73;99301.38;2155987;82;21182;-77
2021/03/10 06:27:13;;;;;;;68.77;28.87;;;;;;;-3.06;62.27;99303.31;2155575;82;22182;-78
2021/03/10 06:30:14;;;;;;;67.40;28.23;;;;;;;-2.81;62.22;99298.28;2155988;82;21189;-77
2021/03/10 06:33:15;;;;;;;64.70;28.57;;;;;;;-2.65;61.76;99304.97;2155991;81;21284;-77
2021/03/10 06:36:17;;;;;;;64.27;29.57;;;;;;;-2.43;62.48;99296.78;2154935;82;21281;-76
2021/03/10 06:39:18;;;;;;;62.70;28.20;;;;;;;-2.25;62.43;99302.27;2156056;82;21099;-78
2021/03/10 06:42:19;;;;;;;61.60;27.87;;;;;;;-2.00;62.26;99306.11;2155643;82;21546;-78
2021/03/10 06:45:20;;;;;;;91.43;29.67;;;;;;;-1.76;61.95;99307.77;2157191;82;21646;-79
2021/03/10 06:48:22;;;;;;;63.00;28.27;;;;;;;-1.53;61.49;99313.56;2156301;82;21297;-78
2021/03/10 06:51:23;;;;;;;65.67;30.03;;;;;;;-1.27;60.47;99319.12;2156380;82;21264;-78
2021/03/10 06:54:24;;;;;;;119.73;31.97;;;;;;;-1.03;60.05;99318.15;2157516;82;21269;-77
2021/03/10 06:57:25;;;;;;;56.63;27.27;;;;;;;-0.80;59.53;99317.98;2156662;82;22131;-78
2021/03/10 07:00:26;;;;;;;80.73;30.43;;;;;;;-0.56;59.00;99321.20;2156010;82;21453;-78
2021/03/10 07:03:27;;;;;;;94.90;32.73;;;;;;;-0.41;58.84;99323.83;2155202;82;21277;-77
2021/03/10 07:06:29;;;;;;;97.77;32.30;;;;;;;-0.20;58.27;99321.30;2155131;82;21130;-77
2021/03/10 07:09:30;;;;;;;142.97;36.07;;;;;;;0.04;57.92;99326.19;2154962;82;21264;-77
2021/03/10 07:12:31;;;;;;;59.90;30.33;;;;;;;0.26;57.44;99330.54;2154575;82;21130;-77
2021/03/10 07:15:33;;;;;;;106.33;33.93;;;;;;;0.45;57.19;99326.98;2156085;82;21253;-77
2021/03/10 07:18:34;;;;;;;78.47;32.17;;;;;;;0.63;56.72;99330.63;2155257;82;21118;-77
2021/03/10 07:21:35;;;;;;;62.57;30.37;;;;;;;0.78;56.29;99322.91;2155230;82;21599;-77
2021/03/10 07:24:36;;;;;;;65.60;32.20;;;;;;;1.00;55.48;99330.20;2155379;82;21301;-77
2021/03/10 07:27:38;;;;;;;64.93;30.20;;;;;;;1.12;55.13;99330.89;2155502;82;21127;-77
2021/03/10 07:30:39;;;;;;;88.07;34.07;;;;;;;1.19;54.45;99330.84;2157311;82;21154;-78
2021/03/10 07:33:40;;;;;;;107.00;38.13;;;;;;;1.23;54.72;99335.36;2165013;81;21288;-77
2021/03/10 07:36:41;;;;;;;65.50;33.50;;;;;;;1.38;54.39;99328.89;2172200;81;21593;-78
2021/03/10 07:39:42;;;;;;;72.33;34.17;;;;;;;1.49;53.98;99324.82;2173036;81;21566;-78
2021/03/10 07:42:43;;;;;;;74.13;34.10;;;;;;;1.64;53.97;99329.92;2172967;81;21280;-78
2021/03/10 07:45:45;;;;;;;65.60;34.17;;;;;;;1.82;53.54;99332.23;2173472;81;21621;-78
2021/03/10 07:48:46;;;;;;;64.70;33.87;;;;;;;2.00;52.87;99332.73;2174159;81;21130;-77
2021/03/10 07:51:47;;;;;;;58.67;30.20;;;;;;;2.17;52.58;99334.09;2173695;81;21264;-78
2021/03/10 07:54:48;;;;;;;69.87;32.90;;;;;;;2.31;52.21;99342.55;2175312;81;21110;-77
2021/03/10 07:57:49;;;;;;;70.70;32.90;;;;;;;2.47;51.81;99339.95;2174280;81;21591;-77
2021/03/10 08:00:50;;;;;;;64.03;33.90;;;;;;;2.66;51.31;99338.34;2172923;81;21146;-78
2021/03/10 08:03:51;;;;;;;65.60;33.93;;;;;;;2.58;50.64;99338.33;2173390;81;21145;-77
2021/03/10 08:06:52;;;;;;;64.10;31.57;;;;;;;2.58;50.69;99335.75;2173173;81;22069;-77
2021/03/10 08:09:54;;;;;;;63.10;28.33;;;;;;;2.70;50.62;99337.29;2173893;81;21288;-76
2021/03/10 08:12:55;;;;;;;47.87;26.33;;;;;;;2.88;50.07;99336.03;2173614;81;21268;-77
2021/03/10 08:15:56;;;;;;;114.77;32.77;;;;;;;3.14;49.33;99344.65;2173200;81;21292;-76
2021/03/10 08:18:57;;;;;;;62.50;30.63;;;;;;;3.06;48.47;99338.23;2173154;81;21138;-75
2021/03/10 08:21:58;;;;;;;61.37;30.67;;;;;;;3.00;48.40;99337.05;2172480;81;21630;-77
2021/03/10 08:24:59;;;;;;;61.40;30.53;;;;;;;3.07;48.92;99341.69;2172116;81;22059;-78
2021/03/10 08:28:00;;;;;;;51.70;25.73;;;;;;;3.34;48.92;99345.61;2173152;81;21264;-77
2021/03/10 08:31:01;;;;;;;43.83;24.63;;;;;;;3.64;48.23;99346.63;2173278;81;21463;-76
2021/03/10 08:34:02;;;;;;;43.90;24.50;;;;;;;3.79;47.39;99344.34;2162968;81;21317;-77
2021/03/10 08:37:06;;;;;;;44.53;25.57;;;;;;;3.90;47.00;99350.41;2155877;82;21528;-76
2021/03/10 08:40:07;;;;;;;55.53;28.90;;;;;;;4.02;46.85;99350.97;2156154;82;21463;-77
2021/03/10 08:43:08;;;;;;;43.63;24.47;;;;;;;4.15;47.12;99346.42;2155828;82;21273;-76
2021/03/10 08:46:09;;;;;;;46.57;21.00;;;;;;;4.28;45.83;99336.64;2155021;82;21256;-76
2021/03/10 08:49:10;;;;;;;26.40;16.20;;;;;;;4.28;44.75;99346.56;2155632;82;21146;-77
2021/03/10 08:52:12;;;;;;;25.70;15.93;;;;;;;4.10;43.10;99349.62;2154905;82;21265;-76
2021/03/10 08:55:13;;;;;;;25.20;13.10;;;;;;;3.86;42.67;99343.34;2155300;82;21153;-77
2021/03/10 08:58:14;;;;;;;22.07;11.23;;;;;;;3.83;42.33;99347.95;2155544;82;21280;-76
2021/03/10 09:01:16;;;;;;;14.37;7.57;;;;;;;3.67;40.48;99354.10;2153047;82;21303;-77
2021/03/10 09:04:17;;;;;;;14.00;9.77;;;;;;;3.67;40.64;99355.80;2154091;82;21277;-77
2021/03/10 09:07:20;;;;;;;25.17;10.70;;;;;;;3.93;41.25;99350.55;2154152;82;21119;-76
2021/03/10 09:10:22;;;;;;;19.57;11.50;;;;;;;4.21;39.80;99343.23;2154922;82;21159;-76
2021/03/10 09:13:23;;;;;;;17.13;10.27;;;;;;;4.31;39.36;99334.19;2155629;82;21284;-76
2021/03/10 09:16:24;;;;;;;22.77;13.43;;;;;;;4.30;39.82;99338.47;2155938;82;21142;-76
2021/03/10 09:19:25;;;;;;;24.63;13.87;;;;;;;3.96;39.88;99341.66;2156191;82;21207;-77
2021/03/10 09:22:26;;;;;;;21.30;11.47;;;;;;;3.75;40.65;99343.73;2156325;82;21630;-75
2021/03/10 09:25:27;;;;;;;21.00;11.07;;;;;;;3.68;39.94;99337.80;2156499;82;21212;-77
2021/03/10 09:28:28;;;;;;;481.73;35.40;;;;;;;3.91;40.14;99340.56;2154590;82;21261;-78
2021/03/10 09:31:29;;;;;;;19.07;10.20;;;;;;;4.11;39.73;99334.19;2155178;82;21300;-77
2021/03/10 09:34:30;;;;;;;20.43;9.67;;;;;;;4.35;38.90;99330.55;2160336;81;21111;-78
2021/03/10 09:37:33;;;;;;;18.47;9.70;;;;;;;4.55;38.54;99326.24;2165707;82;21229;-79
2021/03/10 09:40:34;;;;;;;268.77;23.00;;;;;;;4.63;35.28;99322.69;2166367;82;21291;-78
2021/03/10 09:43:37;;;;;;;15.20;10.17;;;;;;;4.59;37.33;99328.14;2166202;82;21292;-77
2021/03/10 09:46:38;;;;;;;16.00;10.37;;;;;;;4.68;36.60;99325.06;2166172;81;21820;-78
2021/03/10 09:49:39;;;;;;;20.43;10.43;;;;;;;4.63;35.89;99327.86;2166128;82;21532;-77
2021/03/10 09:52:40;;;;;;;21.97;10.33;;;;;;;4.57;35.54;99328.89;2165952;82;21237;-77
2021/03/10 09:55:42;;;;;;;17.37;10.13;;;;;;;4.57;35.10;99334.95;2167121;82;21256;-78
2021/03/10 09:58:43;;;;;;;17.43;11.17;;;;;;;4.65;35.31;99332.69;2166833;82;21264;-77
2021/03/10 10:01:44;;;;;;;22.00;11.83;;;;;;;4.82;34.62;99326.53;2166118;82;22203;-77
2021/03/10 10:04:45;;;;;;;61.80;14.20;;;;;;;4.88;35.40;99333.25;2166707;82;21411;-76
2021/03/10 10:07:47;;;;;;;20.23;11.17;;;;;;;4.95;35.59;99330.52;2166397;82;21272;-77
2021/03/10 10:10:48;;;;;;;17.60;10.83;;;;;;;5.02;35.07;99326.95;2167402;82;21146;-77
2021/03/10 10:13:49;;;;;;;104.83;16.47;;;;;;;4.97;35.77;99336.22;2167637;82;21285;-78
2021/03/10 10:16:50;;;;;;;44.70;13.33;;;;;;;4.97;35.45;99333.64;2167276;82;21122;-78
2021/03/10 10:19:51;;;;;;;812.83;64.77;;;;;;;5.19;34.98;99331.52;2166861;82;21153;-76
2021/03/10 10:22:53;;;;;;;75.67;48.63;;;;;;;5.44;35.25;99332.13;2167165;82;21301;-77
2021/03/10 10:25:55;;;;;;;22.50;12.87;;;;;;;5.85;34.01;99323.37;2167585;82;21299;-78
2021/03/10 10:28:57;;;;;;;17.43;10.63;;;;;;;6.04;34.30;99328.45;2167669;82;21583;-77
2021/03/10 10:31:58;;;;;;;19.63;11.27;;;;;;;5.85;33.41;99329.84;2167232;82;21167;-78
2021/03/10 10:34:59;;;;;;;22.60;11.73;;;;;;;5.90;33.84;99345.19;2171111;82;21323;-77
2021/03/10 10:38:00;;;;;;;18.20;11.77;;;;;;;5.72;33.97;99337.56;2174157;81;21264;-77
2021/03/10 10:41:01;;;;;;;19.33;11.63;;;;;;;5.57;33.39;99346.03;2173575;81;21106;-79
2021/03/10 10:44:02;;;;;;;25.63;11.70;;;;;;;5.33;33.28;99348.94;2173706;81;21288;-77
2021/03/10 10:47:03;;;;;;;17.10;10.93;;;;;;;5.21;33.88;99347.14;2173682;81;21126;-78
2021/03/10 10:50:06;;;;;;;18.73;11.60;;;;;;;5.37;34.27;99339.17;2174307;81;21260;-77
2021/03/10 10:53:07;;;;;;;20.50;11.70;;;;;;;5.32;32.57;99350.64;2174506;81;21298;-78
2021/03/10 10:56:08;;;;;;;18.50;12.03;;;;;;;4.97;33.28;99348.28;2173481;81;21117;-77
2021/03/10 10:59:09;;;;;;;18.73;10.73;;;;;;;4.70;33.24;99348.88;2174553;81;21315;-77
2021/03/10 11:02:10;;;;;;;29.10;13.37;;;;;;;4.59;33.87;99353.11;2174637;81;21424;-79
2021/03/10 11:05:11;;;;;;;183.27;21.13;;;;;;;4.45;32.86;99355.98;2175219;81;21275;-77
2021/03/10 11:08:12;;;;;;;22.40;12.33;;;;;;;4.40;33.89;99356.19;2173459;81;21334;-78
2021/03/10 11:11:15;;;;;;;16.73;11.07;;;;;;;4.46;34.46;99346.12;2171477;81;21143;-77
2021/03/10 11:14:16;;;;;;;16.73;11.53;;;;;;;4.56;34.89;99355.56;2173154;81;21268;-78
2021/03/10 11:17:17;;;;;;;14.67;10.80;;;;;;;4.62;35.04;99351.55;2173846;81;21138;-78
2021/03/10 11:20:18;;;;;;;20.63;11.27;;;;;;;4.68;34.89;99353.10;2172575;81;21272;-78
2021/03/10 11:23:19;;;;;;;18.37;12.27;;;;;;;4.71;34.95;99353.23;2172987;81;21254;-78
2021/03/10 11:26:20;;;;;;;17.07;10.73;;;;;;;4.89;34.52;99342.78;2173572;81;21540;-77
2021/03/10 11:29:21;;;;;;;30.30;11.30;;;;;;;5.04;34.21;99335.66;2173546;81;21110;-80
2021/03/10 11:32:22;;;;;;;18.50;11.70;;;;;;;5.06;34.62;99338.31;2173948;81;21648;-78
2021/03/10 11:35:23;;;;;;;20.17;12.87;;;;;;;5.09;34.28;99336.73;2161711;81;21315;-78
2021/03/10 11:38:24;;;;;;;20.27;11.77;;;;;;;5.19;33.87;99326.75;2155156;82;21147;-78
2021/03/10 11:41:25;;;;;;;21.67;12.53;;;;;;;5.18;33.54;99323.69;2154708;82;21401;-78
2021/03/10 11:44:26;;;;;;;27.43;11.80;;;;;;;5.34;33.39;99321.81;2155983;82;21300;-78
2021/03/10 11:47:28;;;;;;;17.33;11.67;;;;;;;5.52;33.05;99324.66;2157255;82;21221;-78
2021/03/10 11:50:29;;;;;;;22.40;11.87;;;;;;;5.82;32.88;99324.96;2156795;82;21253;-77
2021/03/10 11:53:30;;;;;;;46.90;12.93;;;;;;;6.08;32.41;99323.00;2156191;82;21273;-77
2021/03/10 11:56:31;;;;;;;16.50;10.87;;;;;;;6.28;31.96;99324.61;2156476;82;22034;-77
2021/03/10 11:59:32;;;;;;;23.60;14.57;;;;;;;6.53;30.61;99319.89;2156752;82;21304;-77
2021/03/10 12:02:33;;;;;;;793.53;61.10;;;;;;;5.95;30.45;99312.56;2156326;82;21265;-77
2021/03/10 12:05:34;;;;;;;20.03;11.73;;;;;;;5.95;30.45;99312.56;2156605;82;21186;-78
2021/03/10 12:08:35;;;;;;;19.63;11.10;;;;;;;6.11;31.30;99317.93;2157459;82;22128;-77
2021/03/10 12:11:38;;;;;;;24.57;10.80;;;;;;;6.01;32.33;99314.08;2156619;82;21123;-77
2021/03/10 12:14:39;;;;;;;15.60;10.80;;;;;;;6.01;32.33;99314.08;2156195;82;21285;-77
2021/03/10 12:17:40;;;;;;;49.73;12.13;;;;;;;5.96;30.74;99313.03;2157015;82;21480;-76
2021/03/10 12:20:41;;;;;;;24.00;12.00;;;;;;;5.67;30.62;99319.66;2136245;82;21126;-77
2021/03/10 12:23:43;;;;;;;16.17;10.53;;;;;;;5.38;30.80;99317.64;2156276;82;22105;-77
2021/03/10 12:26:44;;;;;;;17.17;11.30;;;;;;;5.04;30.93;99317.55;2155717;82;21269;-76
2021/03/10 12:29:45;;;;;;;41.27;23.47;;;;;;;4.75;31.00;99314.16;2156536;82;21513;-78
2021/03/10 12:32:46;;;;;;;22.07;11.47;;;;;;;4.62;31.34;99311.88;2155451;82;21272;-78
2021/03/10 12:35:47;;;;;;;17.63;11.50;;;;;;;4.51;31.39;99318.29;2167647;82;21125;-77
2021/03/10 12:38:49;;;;;;;24.03;11.87;;;;;;;4.37;31.81;99325.45;2172243;82;21284;-77
2021/03/10 12:41:50;;;;;;;14.63;10.13;;;;;;;4.26;32.15;99317.59;2172676;81;21558;-77
2021/03/10 12:44:51;;;;;;;20.73;10.07;;;;;;;4.18;32.04;99322.83;2173145;81;21467;-77
2021/03/10 12:47:52;;;;;;;14.60;9.90;;;;;;;4.25;32.23;99317.13;2172209;81;21102;-77
2021/03/10 12:50:53;;;;;;;22.43;10.90;;;;;;;4.57;31.88;99314.67;2172888;81;21285;-77
2021/03/10 12:53:54;;;;;;;18.10;11.00;;;;;;;4.82;31.54;99308.42;2172580;81;21130;-76
2021/03/10 12:56:55;;;;;;;22.77;11.00;;;;;;;5.09;31.82;99300.50;2172105;81;22093;-76
2021/03/10 12:59:56;;;;;;;18.20;10.87;;;;;;;5.46;31.37;99287.76;2172420;81;21256;-76
2021/03/10 13:02:57;;;;;;;14.40;10.23;;;;;;;5.80;31.14;99286.05;2170860;81;21249;-76
2021/03/10 13:05:58;;;;;;;128.87;15.80;;;;;;;6.08;30.68;99280.23;2170967;82;21291;-76
2021/03/10 13:09:00;;;;;;;22.70;10.93;;;;;;;6.32;30.42;99278.94;2169480;81;21711;-75
2021/03/10 13:12:01;;;;;;;36.47;14.23;;;;;;;6.59;30.07;99276.42;2170331;81;21122;-76
2021/03/10 13:15:02;;;;;;;63.53;38.80;;;;;;;6.68;29.39;99283.22;2172278;81;21272;-76
2021/03/10 13:18:03;;;;;;;111.30;15.67;;;;;;;6.85;28.61;99275.59;2172288;81;21395;-76
2021/03/10 13:21:04;;;;;;;14.67;10.80;;;;;;;6.85;28.61;99275.59;2173252;81;21291;-77
2021/03/10 13:24:05;;;;;;;14.33;10.07;;;;;;;6.37;28.71;99292.53;2172875;81;21125;-77
2021/03/10 13:27:06;;;;;;;15.17;10.40;;;;;;;5.92;28.84;99294.30;2174259;81;21725;-79
2021/03/10 13:30:07;;;;;;;22.17;10.97;;;;;;;5.47;29.23;99299.00;2175001;81;21252;-79
2021/03/10 13:33:09;;;;;;;14.30;10.10;;;;;;;5.16;30.20;99298.16;2173176;82;21150;-80
2021/03/10 13:36:10;;;;;;;42.80;19.60;;;;;;;4.90;30.10;99303.57;2161040;81;21143;-77
2021/03/10 13:39:11;;;;;;;20.63;11.70;;;;;;;4.76;30.90;99296.12;2156558;82;21465;-77
2021/03/10 13:42:12;;;;;;;17.73;10.53;;;;;;;4.61;31.00;99297.18;2155720;82;21273;-76
2021/03/10 13:45:13;;;;;;;128.30;15.67;;;;;;;4.43;30.94;99302.04;2156415;82;21269;-77
2021/03/10 13:48:14;;;;;;;18.07;10.73;;;;;;;4.36;31.40;99293.95;2156969;82;21260;-77
2021/03/10 13:51:15;;;;;;;17.20;10.33;;;;;;;4.27;31.59;99294.41;2156926;82;22038;-78
2021/03/10 13:54:16;;;;;;;25.33;10.43;;;;;;;4.22;31.25;99292.03;2156431;82;21091;-77
2021/03/10 13:57:17;;;;;;;21.23;9.80;;;;;;;4.08;31.53;99284.08;2157627;82;21107;-77